Time;durP1;ratioP1;P1;durP2;ratioP2;P2;SDS_P1;SDS_P2;PMS_P1;PMS_P2;Temp;Humidity;BMP_temperature;BMP_pressure;BME280_temperature;BME280_humidity;BME280_pressure;Samples;Min_cycle;Max_cycle;Signal;HPM_P1;HPM_P2
2022/01/06 00:02:04;;;;;;;8.48;1.38;;;;;;;;;;5115882;27;20516;-75
2022/01/06 00:04:30;;;;;;;9.02;1.83;;;;;;;;;;5115039;27;20027;-74
2022/01/06 00:06:56;;;;;;;6.60;1.80;;;;;;;;;;5114591;27;20036;-75
2022/01/06 00:09:23;;;;;;;8.63;2.03;;;;;;;;;;5113175;27;20016;-74
2022/01/06 00:11:49;;;;;;;6.32;1.35;;;;;;;;;;5114566;27;20028;-74
2022/01/06 00:24:25;;;;;;;5.95;1.60;;;;;;;;;;5113091;27;20081;-74
2022/01/06 00:26:51;;;;;;;3.75;1.15;;;;;;;;;;5113136;27;20030;-73
2022/01/06 00:29:18;;;;;;;7.78;1.40;;;;;;;;;;5117895;27;20031;-74
2022/01/06 00:31:45;;;;;;;7.03;1.58;;;;;;;;;;5114870;27;20019;-74
2022/01/06 00:34:11;;;;;;;7.07;1.42;;;;;;;;;;5113861;27;20397;-74
2022/01/06 00:36:41;;;;;;;4.25;1.27;;;;;;;;;;5114573;27;20015;-74
2022/01/06 00:39:08;;;;;;;10.27;1.88;;;;;;;;;;5110232;28;20026;-74
2022/01/06 00:41:36;;;;;;;7.75;0.93;;;;;;;;;;5116891;27;20030;-74
2022/01/06 00:44:04;;;;;;;7.25;1.55;;;;;;;;;;5114859;27;20020;-74
2022/01/06 00:46:31;;;;;;;6.03;1.50;;;;;;;;;;5113808;27;20057;-74
2022/01/06 00:48:57;;;;;;;6.68;1.35;;;;;;;;;;5113802;27;20490;-75
2022/01/06 00:51:23;;;;;;;4.70;1.00;;;;;;;;;;5112376;27;20405;-74
2022/01/06 00:53:50;;;;;;;5.82;1.27;;;;;;;;;;5078044;28;20042;-74
2022/01/06 00:56:16;;;;;;;5.28;1.27;;;;;;;;;;5115757;27;20031;-74
2022/01/06 00:58:42;;;;;;;4.38;0.93;;;;;;;;;;5113926;27;20062;-74
2022/01/06 01:01:09;;;;;;;7.85;1.85;;;;;;;;;;5113975;27;20022;-75
2022/01/06 01:03:35;;;;;;;6.28;0.95;;;;;;;;;;5095306;27;20488;-75
2022/01/06 01:06:01;;;;;;;3.88;0.85;;;;;;;;;;5110872;28;20045;-74
2022/01/06 01:08:28;;;;;;;6.55;1.13;;;;;;;;;;5117272;27;20046;-74
2022/01/06 01:10:56;;;;;;;5.32;1.00;;;;;;;;;;5095711;28;20550;-74
2022/01/06 01:13:31;;;;;;;7.95;1.20;;;;;;;;;;5095516;28;20047;-74
2022/01/06 01:16:01;;;;;;;7.82;1.52;;;;;;;;;;5095619;28;20027;-74
2022/01/06 01:18:27;;;;;;;7.65;1.45;;;;;;;;;;5111999;27;20426;-74
2022/01/06 01:20:54;;;;;;;8.07;1.30;;;;;;;;;;5112258;27;20046;-74
2022/01/06 01:23:21;;;;;;;5.53;0.90;;;;;;;;;;5115879;27;20024;-75
2022/01/06 01:25:47;;;;;;;7.75;1.00;;;;;;;;;;5113006;27;20012;-74
2022/01/06 01:28:15;;;;;;;7.68;1.08;;;;;;;;;;5113499;27;20039;-74
2022/01/06 01:31:12;;;;;;;5.60;1.38;;;;;;;;;;5113323;27;20034;-75
2022/01/06 01:33:38;;;;;;;7.65;1.17;;;;;;;;;;5113077;27;20031;-74
2022/01/06 01:36:05;;;;;;;5.53;1.20;;;;;;;;;;5109230;28;20012;-74
2022/01/06 01:38:32;;;;;;;3.83;1.05;;;;;;;;;;5124232;27;20019;-74
2022/01/06 01:40:58;;;;;;;4.05;1.10;;;;;;;;;;5113469;27;20504;-75
2022/01/06 01:43:24;;;;;;;7.18;1.30;;;;;;;;;;5113309;27;20028;-74
2022/01/06 01:45:56;;;;;;;5.85;1.38;;;;;;;;;;5114466;27;20061;-75
2022/01/06 01:48:30;;;;;;;8.20;2.08;;;;;;;;;;5111088;28;20020;-74
2022/01/06 01:50:56;;;;;;;7.35;2.13;;;;;;;;;;5092368;28;20028;-74
2022/01/06 01:53:23;;;;;;;4.97;1.20;;;;;;;;;;5115773;28;20038;-74
2022/01/06 01:55:49;;;;;;;7.90;1.25;;;;;;;;;;5114753;28;20031;-75
2022/01/06 01:58:16;;;;;;;7.90;1.38;;;;;;;;;;5119054;28;20024;-75
2022/01/06 02:00:42;;;;;;;6.18;1.05;;;;;;;;;;5112760;28;20083;-74
2022/01/06 02:03:08;;;;;;;6.22;1.25;;;;;;;;;;5109182;28;20497;-74
2022/01/06 02:05:35;;;;;;;3.03;0.90;;;;;;;;;;5115427;28;20492;-75
2022/01/06 02:08:02;;;;;;;6.07;1.02;;;;;;;;;;5113398;28;20042;-74
2022/01/06 02:10:30;;;;;;;2.70;1.00;;;;;;;;;;5112963;28;20030;-74
2022/01/06 02:12:57;;;;;;;6.68;1.45;;;;;;;;;;5112972;28;20519;-75
2022/01/06 02:15:24;;;;;;;5.43;0.90;;;;;;;;;;5110918;28;20028;-74
2022/01/06 02:17:51;;;;;;;6.68;0.98;;;;;;;;;;5111730;28;20024;-74
2022/01/06 02:20:18;;;;;;;6.07;0.82;;;;;;;;;;5115334;28;20024;-74
2022/01/06 02:22:45;;;;;;;4.93;0.93;;;;;;;;;;5094785;28;20389;-74
2022/01/06 02:25:16;;;;;;;3.50;1.10;;;;;;;;;;5114602;28;20039;-74
2022/01/06 02:27:43;;;;;;;6.40;1.10;;;;;;;;;;5112892;28;20372;-74
2022/01/06 02:30:11;;;;;;;5.50;1.23;;;;;;;;;;5109094;28;20036;-74
2022/01/06 02:32:37;;;;;;;6.55;1.10;;;;;;;;;;5114517;28;20027;-75
2022/01/06 02:35:11;;;;;;;3.75;0.95;;;;;;;;;;5113781;28;20035;-74
2022/01/06 02:37:37;;;;;;;7.13;1.48;;;;;;;;;;5114102;28;20023;-75
2022/01/06 02:40:11;;;;;;;5.22;0.95;;;;;;;;;;5116653;27;20036;-74
2022/01/06 02:42:50;;;;;;;4.15;0.95;;;;;;;;;;5116582;27;20015;-75
2022/01/06 02:45:17;;;;;;;7.25;1.30;;;;;;;;;;5113614;27;20444;-75
2022/01/06 02:47:44;;;;;;;5.45;1.25;;;;;;;;;;5116629;27;20055;-74
2022/01/06 02:50:11;;;;;;;7.10;1.20;;;;;;;;;;5117470;27;20024;-74
2022/01/06 02:52:37;;;;;;;11.50;0.95;;;;;;;;;;5116360;27;20023;-75
2022/01/06 02:55:05;;;;;;;5.95;1.30;;;;;;;;;;5098355;28;20039;-74
2022/01/06 02:57:32;;;;;;;5.75;1.23;;;;;;;;;;5115686;27;20033;-74
2022/01/06 02:59:58;;;;;;;6.57;1.33;;;;;;;;;;5112552;27;20367;-74
2022/01/06 03:02:26;;;;;;;4.10;0.90;;;;;;;;;;5119203;27;20027;-74
2022/01/06 03:04:52;;;;;;;7.18;1.45;;;;;;;;;;5117943;27;20020;-74
2022/01/06 03:07:19;;;;;;;7.00;1.38;;;;;;;;;;5116581;27;20158;-74
2022/01/06 03:09:52;;;;;;;7.03;1.10;;;;;;;;;;5115849;27;20033;-74
2022/01/06 03:12:24;;;;;;;5.45;1.23;;;;;;;;;;5113936;27;20024;-74
2022/01/06 03:14:50;;;;;;;3.08;1.02;;;;;;;;;;5114500;27;20031;-74
2022/01/06 03:17:17;;;;;;;3.80;1.00;;;;;;;;;;5117957;27;20016;-74
2022/01/06 03:19:43;;;;;;;5.90;1.02;;;;;;;;;;5116034;27;20038;-74
2022/01/06 03:22:09;;;;;;;6.97;1.30;;;;;;;;;;5115725;27;20409;-74
2022/01/06 03:24:36;;;;;;;5.22;1.02;;;;;;;;;;5115845;27;20022;-74
2022/01/06 03:27:02;;;;;;;4.88;1.85;;;;;;;;;;5111507;28;20464;-74
2022/01/06 03:29:29;;;;;;;4.20;1.35;;;;;;;;;;5118678;27;20022;-74
2022/01/06 03:31:55;;;;;;;7.10;1.13;;;;;;;;;;5097315;28;20029;-75
2022/01/06 03:34:21;;;;;;;6.13;0.90;;;;;;;;;;5115587;27;20028;-74
2022/01/06 03:36:48;;;;;;;7.78;1.27;;;;;;;;;;5115777;27;20019;-74
2022/01/06 03:39:14;;;;;;;6.30;1.55;;;;;;;;;;5094411;27;20028;-74
2022/01/06 03:41:40;;;;;;;6.07;1.10;;;;;;;;;;5116664;27;20019;-75
2022/01/06 03:44:07;;;;;;;6.55;1.00;;;;;;;;;;5117560;27;20032;-74
2022/01/06 03:46:33;;;;;;;4.75;1.20;;;;;;;;;;5115280;27;20405;-74
2022/01/06 03:49:00;;;;;;;7.88;1.17;;;;;;;;;;5114680;27;20019;-74
2022/01/06 03:51:27;;;;;;;6.00;1.10;;;;;;;;;;5113903;27;20027;-74
2022/01/06 03:53:53;;;;;;;4.63;1.05;;;;;;;;;;5113214;27;20502;-74
2022/01/06 03:56:20;;;;;;;2.47;0.82;;;;;;;;;;5099306;28;20024;-74
2022/01/06 03:58:46;;;;;;;3.95;0.90;;;;;;;;;;5114662;27;20019;-74
2022/01/06 04:01:12;;;;;;;7.72;1.08;;;;;;;;;;5115385;27;20031;-74
2022/01/06 04:03:39;;;;;;;6.30;1.15;;;;;;;;;;5115308;27;20026;-74
2022/01/06 04:06:06;;;;;;;3.78;0.90;;;;;;;;;;5110673;27;20057;-73
2022/01/06 04:08:32;;;;;;;8.35;1.17;;;;;;;;;;5118086;27;20024;-74
2022/01/06 04:10:59;;;;;;;6.85;1.70;;;;;;;;;;5115114;27;20322;-74
2022/01/06 04:13:25;;;;;;;4.88;1.00;;;;;;;;;;5095863;28;20498;-74
2022/01/06 04:15:51;;;;;;;3.75;1.00;;;;;;;;;;5114516;27;20011;-74
2022/01/06 04:18:17;;;;;;;5.28;1.00;;;;;;;;;;5112420;27;20482;-74
2022/01/06 04:20:44;;;;;;;4.53;0.80;;;;;;;;;;5114602;27;20039;-74
2022/01/06 04:23:10;;;;;;;3.35;0.75;;;;;;;;;;5117490;27;20042;-74
2022/01/06 04:25:36;;;;;;;2.08;0.88;;;;;;;;;;5114203;27;20497;-74
2022/01/06 04:28:03;;;;;;;4.38;1.08;;;;;;;;;;5114437;27;20016;-74
2022/01/06 04:30:29;;;;;;;3.10;1.00;;;;;;;;;;5113925;27;20026;-74
2022/01/06 04:32:56;;;;;;;5.03;0.88;;;;;;;;;;5111789;27;20023;-74
2022/01/06 04:35:22;;;;;;;2.33;0.68;;;;;;;;;;5116811;27;20405;-74
2022/01/06 04:37:49;;;;;;;3.80;1.23;;;;;;;;;;5114230;27;20023;-74
2022/01/06 04:40:16;;;;;;;4.32;1.30;;;;;;;;;;5114007;27;20082;-74
2022/01/06 04:42:42;;;;;;;6.32;0.90;;;;;;;;;;5096147;27;20416;-74
2022/01/06 04:45:09;;;;;;;5.45;0.90;;;;;;;;;;5110432;27;20038;-74
2022/01/06 04:47:35;;;;;;;4.03;1.23;;;;;;;;;;5116188;27;20050;-74
2022/01/06 04:50:01;;;;;;;3.05;1.30;;;;;;;;;;5114611;27;20030;-74
2022/01/06 04:52:28;;;;;;;6.40;1.00;;;;;;;;;;5114139;27;20381;-74
2022/01/06 04:54:54;;;;;;;1.80;0.90;;;;;;;;;;5113697;27;20031;-74
2022/01/06 04:57:21;;;;;;;2.80;0.75;;;;;;;;;;5111890;27;20045;-75
2022/01/06 04:59:47;;;;;;;3.28;0.68;;;;;;;;;;5095331;28;20050;-74
2022/01/06 05:02:14;;;;;;;4.40;0.93;;;;;;;;;;5116530;28;20447;-74
2022/01/06 05:04:41;;;;;;;4.68;1.00;;;;;;;;;;5113582;27;20478;-74
2022/01/06 05:07:07;;;;;;;1.50;0.68;;;;;;;;;;5114124;27;20037;-75
2022/01/06 05:09:33;;;;;;;3.17;0.70;;;;;;;;;;5112973;27;20041;-74
2022/01/06 05:12:00;;;;;;;5.97;0.90;;;;;;;;;;5110169;27;20498;-74
2022/01/06 05:14:26;;;;;;;3.10;0.98;;;;;;;;;;5116766;27;20034;-74
2022/01/06 05:16:55;;;;;;;7.68;0.98;;;;;;;;;;5113656;27;20024;-74
2022/01/06 05:19:23;;;;;;;3.78;1.00;;;;;;;;;;5113414;27;20034;-73
2022/01/06 05:21:51;;;;;;;8.18;1.20;;;;;;;;;;5113538;27;20007;-75
2022/01/06 05:24:18;;;;;;;3.65;1.00;;;;;;;;;;5110908;27;20031;-74
2022/01/06 05:26:45;;;;;;;3.05;1.35;;;;;;;;;;5113689;27;20016;-74
2022/01/06 05:29:12;;;;;;;1.25;0.40;;;;;;;;;;5114434;27;20023;-74
2022/01/06 05:31:39;;;;;;;6.55;0.85;;;;;;;;;;5113280;27;20019;-74
2022/01/06 05:34:06;;;;;;;5.20;1.25;;;;;;;;;;5113335;27;20040;-74
2022/01/06 05:36:33;;;;;;;2.58;0.93;;;;;;;;;;5112715;28;20379;-75
2022/01/06 05:38:59;;;;;;;6.18;1.00;;;;;;;;;;5110378;28;20389;-74
2022/01/06 05:41:25;;;;;;;2.90;1.02;;;;;;;;;;5117125;27;20042;-74
2022/01/06 05:43:52;;;;;;;1.52;0.85;;;;;;;;;;5113019;27;20030;-74
2022/01/06 05:46:19;;;;;;;3.47;0.77;;;;;;;;;;5113326;28;20413;-74
2022/01/06 05:48:46;;;;;;;3.22;1.00;;;;;;;;;;5113461;28;20022;-74
2022/01/06 05:51:12;;;;;;;4.47;0.75;;;;;;;;;;5109887;28;20024;-74
2022/01/06 05:53:38;;;;;;;4.88;1.00;;;;;;;;;;5114366;28;20036;-74
2022/01/06 05:56:05;;;;;;;3.15;1.35;;;;;;;;;;5114059;28;20485;-74
2022/01/06 05:58:32;;;;;;;4.22;1.20;;;;;;;;;;5113214;28;20020;-74
2022/01/06 06:00:58;;;;;;;2.58;0.80;;;;;;;;;;5113395;28;20026;-74
2022/01/06 06:03:27;;;;;;;3.50;1.00;;;;;;;;;;5093343;28;20026;-74
2022/01/06 06:05:57;;;;;;;5.40;1.00;;;;;;;;;;5093222;28;20113;-74
2022/01/06 06:08:23;;;;;;;4.93;1.38;;;;;;;;;;5115420;28;20038;-74
2022/01/06 06:10:49;;;;;;;4.78;1.10;;;;;;;;;;5113369;28;20026;-74
2022/01/06 06:13:16;;;;;;;9.35;1.50;;;;;;;;;;5115604;27;20038;-74
2022/01/06 06:15:42;;;;;;;8.18;1.30;;;;;;;;;;5117198;27;20019;-74
2022/01/06 06:18:12;;;;;;;3.28;1.17;;;;;;;;;;5114576;28;20035;-74
2022/01/06 06:20:42;;;;;;;9.77;1.70;;;;;;;;;;5100494;28;20415;-74
2022/01/06 06:23:08;;;;;;;4.00;1.15;;;;;;;;;;5119147;27;20031;-74
2022/01/06 06:25:35;;;;;;;2.40;1.10;;;;;;;;;;5116947;27;20023;-74
2022/01/06 06:28:01;;;;;;;5.45;1.40;;;;;;;;;;5116634;27;20024;-74
2022/01/06 06:30:28;;;;;;;5.55;1.40;;;;;;;;;;5115595;27;20446;-74
2022/01/06 06:32:54;;;;;;;6.78;1.23;;;;;;;;;;5114850;27;20030;-74
2022/01/06 06:35:21;;;;;;;5.32;1.08;;;;;;;;;;5118955;27;20020;-74
2022/01/06 06:37:47;;;;;;;9.98;1.40;;;;;;;;;;5116559;27;20019;-74
2022/01/06 06:40:13;;;;;;;3.92;1.10;;;;;;;;;;5116601;27;20024;-74
2022/01/06 06:42:40;;;;;;;5.10;1.40;;;;;;;;;;5116807;27;20021;-74
2022/01/06 06:45:08;;;;;;;5.63;1.05;;;;;;;;;;5112352;28;20023;-74
2022/01/06 06:47:35;;;;;;;10.10;2.40;;;;;;;;;;5119063;27;20387;-74
2022/01/06 06:50:01;;;;;;;7.07;1.45;;;;;;;;;;5118288;27;20038;-74
2022/01/06 06:52:27;;;;;;;5.20;1.35;;;;;;;;;;5097704;28;20028;-74
2022/01/06 06:54:54;;;;;;;6.13;1.90;;;;;;;;;;5116381;27;20083;-74
2022/01/06 06:57:20;;;;;;;10.65;2.20;;;;;;;;;;5115624;27;20020;-74
2022/01/06 06:59:47;;;;;;;8.40;2.40;;;;;;;;;;5116682;27;20028;-74
2022/01/06 07:02:13;;;;;;;7.70;2.42;;;;;;;;;;5117199;27;20072;-74
2022/01/06 07:04:39;;;;;;;8.45;2.63;;;;;;;;;;5116058;27;20375;-74
2022/01/06 07:07:06;;;;;;;12.07;2.97;;;;;;;;;;5114112;27;20618;-74
2022/01/06 07:09:32;;;;;;;9.57;2.38;;;;;;;;;;5114561;27;20031;-74
2022/01/06 07:11:58;;;;;;;8.10;2.83;;;;;;;;;;5112150;27;20063;-74
2022/01/06 07:14:25;;;;;;;8.95;2.20;;;;;;;;;;5118473;27;20031;-74
2022/01/06 07:16:51;;;;;;;9.68;2.08;;;;;;;;;;5096070;28;20028;-74
2022/01/06 07:19:17;;;;;;;9.82;2.58;;;;;;;;;;5118519;27;20027;-73
2022/01/06 07:21:44;;;;;;;11.00;2.78;;;;;;;;;;5119938;27;20019;-73
2022/01/06 07:24:10;;;;;;;6.93;2.67;;;;;;;;;;5111928;27;20028;-74
2022/01/06 07:26:36;;;;;;;6.07;2.60;;;;;;;;;;5121851;27;20027;-73
2022/01/06 07:29:03;;;;;;;8.73;2.88;;;;;;;;;;5115580;27;20015;-75
2022/01/06 07:31:29;;;;;;;7.35;2.83;;;;;;;;;;5115591;27;20032;-74
2022/01/06 07:33:55;;;;;;;13.18;3.22;;;;;;;;;;5115500;27;20031;-74
2022/01/06 07:36:22;;;;;;;10.75;2.83;;;;;;;;;;5112826;27;20024;-74
2022/01/06 07:38:48;;;;;;;12.30;3.03;;;;;;;;;;5114994;27;20030;-74
2022/01/06 07:41:16;;;;;;;10.35;3.17;;;;;;;;;;5113801;27;20502;-74
2022/01/06 07:43:42;;;;;;;34.90;15.13;;;;;;;;;;5113323;27;20635;-73
2022/01/06 07:46:09;;;;;;;21.50;8.52;;;;;;;;;;5117548;27;20046;-73
2022/01/06 07:48:54;;;;;;;20.92;7.10;;;;;;;;;;5111676;27;20019;-74
2022/01/06 07:51:21;;;;;;;9.70;3.75;;;;;;;;;;5098690;27;20024;-73
2022/01/06 07:53:47;;;;;;;13.00;4.13;;;;;;;;;;5114825;27;20039;-75
2022/01/06 07:56:13;;;;;;;15.90;6.45;;;;;;;;;;5114802;27;20030;-73
2022/01/06 07:58:40;;;;;;;9.40;4.53;;;;;;;;;;5096734;28;20065;-74
2022/01/06 08:01:06;;;;;;;10.98;5.15;;;;;;;;;;5115843;27;20030;-74
2022/01/06 08:03:33;;;;;;;9.52;3.28;;;;;;;;;;5124956;27;20033;-74
2022/01/06 08:06:00;;;;;;;17.55;6.50;;;;;;;;;;5110482;27;20039;-73
2022/01/06 08:08:26;;;;;;;16.98;6.28;;;;;;;;;;5104419;28;20036;-74
2022/01/06 08:10:52;;;;;;;8.50;3.25;;;;;;;;;;5113831;27;20024;-74
2022/01/06 08:13:19;;;;;;;6.43;1.88;;;;;;;;;;5117905;27;20038;-74
2022/01/06 08:15:45;;;;;;;5.72;1.73;;;;;;;;;;5124138;27;20037;-74
2022/01/06 08:18:11;;;;;;;11.68;2.38;;;;;;;;;;5109332;27;20020;-74
2022/01/06 08:20:38;;;;;;;7.75;2.25;;;;;;;;;;5096991;28;20016;-74
2022/01/06 08:23:05;;;;;;;4.38;1.50;;;;;;;;;;5113880;27;20019;-74
2022/01/06 08:25:32;;;;;;;10.18;1.60;;;;;;;;;;5098437;27;20091;-74
2022/01/06 08:27:58;;;;;;;7.28;1.50;;;;;;;;;;5121533;27;20042;-74
2022/01/06 08:30:25;;;;;;;11.60;2.38;;;;;;;;;;5110311;27;20020;-73
2022/01/06 08:32:52;;;;;;;5.97;1.50;;;;;;;;;;5112111;27;20076;-74
2022/01/06 08:35:19;;;;;;;4.32;1.52;;;;;;;;;;5116146;27;20031;-74
2022/01/06 08:37:45;;;;;;;5.25;1.42;;;;;;;;;;5113056;27;20367;-74
2022/01/06 08:40:12;;;;;;;5.07;1.58;;;;;;;;;;5112685;27;20035;-74
2022/01/06 08:42:38;;;;;;;6.93;1.77;;;;;;;;;;5120725;27;20430;-74
2022/01/06 08:45:05;;;;;;;5.57;1.65;;;;;;;;;;5108980;28;20024;-75
2022/01/06 08:47:32;;;;;;;5.30;1.75;;;;;;;;;;5119318;27;20051;-75
2022/01/06 08:49:58;;;;;;;4.30;1.45;;;;;;;;;;5112906;27;20027;-75
2022/01/06 08:52:25;;;;;;;6.10;1.35;;;;;;;;;;5114012;27;20028;-74
2022/01/06 08:54:51;;;;;;;6.50;1.48;;;;;;;;;;5114228;27;20039;-75
2022/01/06 08:57:18;;;;;;;8.30;2.08;;;;;;;;;;5109739;27;20034;-74
2022/01/06 08:59:45;;;;;;;7.70;2.17;;;;;;;;;;5093435;28;20032;-75
2022/01/06 09:02:11;;;;;;;5.80;1.88;;;;;;;;;;5114069;27;20027;-74
2022/01/06 09:04:37;;;;;;;6.22;1.50;;;;;;;;;;5112788;27;20046;-75
2022/01/06 09:07:04;;;;;;;4.28;1.77;;;;;;;;;;5112660;27;20030;-75
2022/01/06 09:09:30;;;;;;;4.30;1.80;;;;;;;;;;5102654;27;20027;-75
2022/01/06 09:11:57;;;;;;;5.38;1.98;;;;;;;;;;5113832;27;20015;-74
2022/01/06 09:14:23;;;;;;;6.95;1.90;;;;;;;;;;5113964;27;20490;-74
2022/01/06 09:16:51;;;;;;;6.13;1.50;;;;;;;;;;5111795;27;20027;-75
2022/01/06 09:19:17;;;;;;;4.55;1.58;;;;;;;;;;5112336;27;20016;-75
2022/01/06 09:21:43;;;;;;;7.28;1.80;;;;;;;;;;5112825;27;20039;-74
2022/01/06 09:24:10;;;;;;;4.18;1.20;;;;;;;;;;5108512;27;20062;-74
2022/01/06 09:26:37;;;;;;;6.45;1.23;;;;;;;;;;5113935;27;20024;-73
2022/01/06 09:29:04;;;;;;;6.65;1.80;;;;;;;;;;5112762;27;20034;-74
2022/01/06 09:31:30;;;;;;;5.28;1.75;;;;;;;;;;5114472;27;20023;-73
2022/01/06 09:33:57;;;;;;;3.33;1.10;;;;;;;;;;5113228;27;20023;-74
2022/01/06 09:36:23;;;;;;;4.47;1.40;;;;;;;;;;5114534;27;20024;-74
2022/01/06 09:38:50;;;;;;;8.45;1.45;;;;;;;;;;5111868;27;20020;-74
2022/01/06 09:41:17;;;;;;;7.72;1.45;;;;;;;;;;5123490;27;20033;-74
2022/01/06 09:43:44;;;;;;;5.90;1.38;;;;;;;;;;5114225;27;20038;-74
2022/01/06 09:46:11;;;;;;;6.25;1.65;;;;;;;;;;5114962;28;20050;-73
2022/01/06 09:48:38;;;;;;;6.50;1.70;;;;;;;;;;5127531;27;20027;-73
2022/01/06 09:51:05;;;;;;;4.32;1.25;;;;;;;;;;5112052;28;20017;-73
2022/01/06 09:53:31;;;;;;;6.75;1.40;;;;;;;;;;5124210;28;20038;-73
2022/01/06 09:55:58;;;;;;;4.72;1.20;;;;;;;;;;5109670;28;20043;-74
2022/01/06 09:58:26;;;;;;;4.25;0.90;;;;;;;;;;5127632;28;20019;-73
2022/01/06 10:00:52;;;;;;;4.47;1.38;;;;;;;;;;5127071;28;20504;-73
2022/01/06 10:03:19;;;;;;;3.78;1.50;;;;;;;;;;5128913;27;20060;-73
2022/01/06 10:05:49;;;;;;;2.92;1.50;;;;;;;;;;5129712;28;20427;-73
2022/01/06 10:08:26;;;;;;;3.95;1.65;;;;;;;;;;5128630;28;20024;-74
2022/01/06 10:10:52;;;;;;;5.25;1.40;;;;;;;;;;5127382;28;20027;-74
2022/01/06 10:13:19;;;;;;;7.35;1.38;;;;;;;;;;5109172;28;20027;-74
2022/01/06 10:15:46;;;;;;;4.82;1.30;;;;;;;;;;5126758;28;20011;-74
2022/01/06 10:18:14;;;;;;;7.95;1.50;;;;;;;;;;5110152;28;20020;-74
2022/01/06 10:20:41;;;;;;;4.10;1.20;;;;;;;;;;5129693;28;20027;-74
2022/01/06 10:23:14;;;;;;;6.13;1.38;;;;;;;;;;5126067;28;20782;-73
2022/01/06 10:25:48;;;;;;;4.25;1.30;;;;;;;;;;5127361;28;20022;-74
2022/01/06 10:28:19;;;;;;;7.00;1.50;;;;;;;;;;5126767;28;20525;-74
2022/01/06 10:30:49;;;;;;;2.55;1.20;;;;;;;;;;5126735;27;20022;-73
2022/01/06 10:33:17;;;;;;;6.35;1.40;;;;;;;;;;5112406;28;20031;-74
2022/01/06 10:35:43;;;;;;;3.80;1.17;;;;;;;;;;5129629;28;20396;-74
2022/01/06 10:38:09;;;;;;;5.10;1.45;;;;;;;;;;5128301;28;20027;-74
2022/01/06 10:40:36;;;;;;;8.00;2.13;;;;;;;;;;5124445;27;20392;-74
2022/01/06 10:43:06;;;;;;;4.95;1.65;;;;;;;;;;5126798;28;20015;-74
2022/01/06 10:45:34;;;;;;;6.47;1.57;;;;;;;;;;5127306;28;20496;-73
2022/01/06 10:48:03;;;;;;;5.05;1.95;;;;;;;;;;5112958;27;20020;-73
2022/01/06 10:50:32;;;;;;;4.45;1.50;;;;;;;;;;5111001;28;20032;-73
2022/01/06 10:53:04;;;;;;;4.40;1.65;;;;;;;;;;5116410;28;20046;-73
2022/01/06 10:55:35;;;;;;;4.20;1.55;;;;;;;;;;5112450;28;20035;-74
2022/01/06 10:58:01;;;;;;;3.75;1.40;;;;;;;;;;5119048;28;20030;-73
2022/01/06 11:00:44;;;;;;;4.25;1.58;;;;;;;;;;5093521;27;20042;-74
2022/01/06 11:03:11;;;;;;;3.80;1.20;;;;;;;;;;5095372;27;20040;-74
2022/01/06 11:05:39;;;;;;;5.97;2.33;;;;;;;;;;5122545;27;20037;-74
2022/01/06 11:08:05;;;;;;;6.28;1.42;;;;;;;;;;5096260;28;20038;-73
2022/01/06 11:10:35;;;;;;;4.82;1.30;;;;;;;;;;5114694;27;20516;-73
2022/01/06 11:13:02;;;;;;;4.90;1.60;;;;;;;;;;5114494;27;20024;-73
2022/01/06 11:15:28;;;;;;;6.60;1.88;;;;;;;;;;5113092;27;20037;-74
2022/01/06 11:17:55;;;;;;;3.88;1.40;;;;;;;;;;5112942;27;20020;-74
2022/01/06 11:20:28;;;;;;;3.75;1.48;;;;;;;;;;5116540;27;20050;-74
2022/01/06 11:22:57;;;;;;;4.55;1.60;;;;;;;;;;5114555;27;20027;-74
2022/01/06 11:25:34;;;;;;;4.93;1.80;;;;;;;;;;5096258;28;20039;-73
2022/01/06 11:28:10;;;;;;;3.92;1.70;;;;;;;;;;5114080;27;20386;-74
2022/01/06 11:30:46;;;;;;;6.45;1.98;;;;;;;;;;5115583;27;20021;-74
2022/01/06 11:33:13;;;;;;;4.72;1.40;;;;;;;;;;5095439;27;20028;-73
2022/01/06 11:35:55;;;;;;;5.85;1.70;;;;;;;;;;5097701;28;20050;-74
2022/01/06 11:38:25;;;;;;;5.40;1.77;;;;;;;;;;5116191;27;20034;-73
2022/01/06 11:40:53;;;;;;;6.15;1.50;;;;;;;;;;5113308;27;20020;-73
2022/01/06 11:43:19;;;;;;;6.55;1.60;;;;;;;;;;5114547;27;20028;-74
2022/01/06 11:45:46;;;;;;;4.13;1.52;;;;;;;;;;5113775;27;20019;-74
2022/01/06 11:48:16;;;;;;;3.67;1.58;;;;;;;;;;5092524;27;20028;-73
2022/01/06 11:50:50;;;;;;;6.75;1.42;;;;;;;;;;5115315;27;20049;-73
2022/01/06 11:53:17;;;;;;;6.28;1.88;;;;;;;;;;5125199;27;20015;-74
2022/01/06 11:55:44;;;;;;;6.25;1.80;;;;;;;;;;5116449;27;20447;-73
2022/01/06 11:58:12;;;;;;;4.90;1.48;;;;;;;;;;5113881;27;20034;-73
2022/01/06 12:00:42;;;;;;;4.18;1.75;;;;;;;;;;5113631;27;20016;-73
2022/01/06 12:03:12;;;;;;;7.43;1.80;;;;;;;;;;5093735;28;20439;-73
2022/01/06 12:05:48;;;;;;;5.68;1.42;;;;;;;;;;5116407;27;20027;-73
2022/01/06 12:08:15;;;;;;;6.03;1.65;;;;;;;;;;5115187;27;20038;-73
2022/01/06 12:10:42;;;;;;;9.38;2.78;;;;;;;;;;5112917;27;20385;-73
2022/01/06 12:13:09;;;;;;;7.60;2.40;;;;;;;;;;5113537;27;20035;-73
2022/01/06 12:15:45;;;;;;;5.57;1.67;;;;;;;;;;5113208;27;20398;-73
2022/01/06 12:18:11;;;;;;;8.00;1.63;;;;;;;;;;5094058;27;20725;-73
2022/01/06 12:20:37;;;;;;;6.80;2.08;;;;;;;;;;5115768;27;20023;-73
2022/01/06 12:23:05;;;;;;;4.38;1.60;;;;;;;;;;5114288;27;20023;-73
2022/01/06 12:25:32;;;;;;;5.68;1.38;;;;;;;;;;5113574;27;20028;-73
2022/01/06 12:27:58;;;;;;;3.13;1.33;;;;;;;;;;5113265;27;20023;-73
2022/01/06 12:30:28;;;;;;;4.93;1.60;;;;;;;;;;5110268;27;20034;-73
2022/01/06 12:32:57;;;;;;;4.07;1.65;;;;;;;;;;5112098;27;20016;-73
2022/01/06 12:35:41;;;;;;;6.07;2.08;;;;;;;;;;5114730;27;20042;-73
2022/01/06 12:38:09;;;;;;;7.13;1.95;;;;;;;;;;5118418;27;20015;-73
2022/01/06 12:40:37;;;;;;;7.45;1.52;;;;;;;;;;5116461;27;20028;-72
2022/01/06 12:43:20;;;;;;;4.82;1.60;;;;;;;;;;5112672;27;20397;-73
2022/01/06 12:45:59;;;;;;;4.93;2.05;;;;;;;;;;5110236;27;20508;-73
2022/01/06 12:48:43;;;;;;;7.13;1.60;;;;;;;;;;5110787;27;20032;-72
2022/01/06 12:51:11;;;;;;;5.93;1.52;;;;;;;;;;5076271;27;20035;-72
2022/01/06 12:53:41;;;;;;;5.25;1.58;;;;;;;;;;5115022;27;20399;-73
2022/01/06 12:56:08;;;;;;;8.57;1.40;;;;;;;;;;5114321;27;20037;-73
2022/01/06 12:58:36;;;;;;;4.95;1.98;;;;;;;;;;5110296;27;20397;-73
2022/01/06 13:01:04;;;;;;;4.97;1.67;;;;;;;;;;5111928;27;20535;-73
2022/01/06 13:03:31;;;;;;;3.03;1.35;;;;;;;;;;5116142;27;20026;-73
2022/01/06 13:05:58;;;;;;;4.82;1.27;;;;;;;;;;5117830;27;20494;-74
2022/01/06 13:08:24;;;;;;;5.40;1.30;;;;;;;;;;5126122;27;20023;-73
2022/01/06 13:11:11;;;;;;;4.53;1.35;;;;;;;;;;5108163;27;20026;-73
2022/01/06 13:13:51;;;;;;;3.90;1.77;;;;;;;;;;5094726;28;20072;-73
2022/01/06 13:16:19;;;;;;;5.73;2.27;;;;;;;;;;5094411;28;20036;-73
2022/01/06 13:18:55;;;;;;;5.10;2.22;;;;;;;;;;5112342;27;20034;-73
2022/01/06 13:21:31;;;;;;;4.53;1.17;;;;;;;;;;5109675;28;20458;-73
2022/01/06 13:24:10;;;;;;;5.60;1.02;;;;;;;;;;5109877;28;20031;-73
2022/01/06 13:26:50;;;;;;;4.85;1.23;;;;;;;;;;5120060;27;20056;-73
2022/01/06 13:29:26;;;;;;;5.00;1.40;;;;;;;;;;5111637;27;20031;-72
2022/01/06 13:32:06;;;;;;;2.78;1.33;;;;;;;;;;5103653;28;20276;-73
2022/01/06 13:34:33;;;;;;;2.53;1.27;;;;;;;;;;5113131;27;20095;-74
2022/01/06 13:37:07;;;;;;;3.42;1.30;;;;;;;;;;5114081;28;20072;-73
2022/01/06 13:39:38;;;;;;;3.17;1.23;;;;;;;;;;5113367;27;20382;-73
2022/01/06 13:42:04;;;;;;;;;;;;;;;;;;5125088;27;20024;-73
2022/01/06 13:44:30;;;;;;;7.78;2.60;;;;;;;;;;5115400;27;19914;-73
2022/01/06 13:47:06;;;;;;;5.63;2.03;;;;;;;;;;5111742;27;20039;-73
2022/01/06 13:52:20;;;;;;;2.72;1.35;;;;;;;;;;5109990;27;20032;-74
2022/01/06 13:54:46;;;;;;;3.83;1.20;;;;;;;;;;5089165;28;20035;-73
2022/01/06 13:57:13;;;;;;;3.85;1.30;;;;;;;;;;5112981;28;20030;-73
2022/01/06 13:59:41;;;;;;;4.05;1.10;;;;;;;;;;5112164;28;20039;-73
2022/01/06 14:02:08;;;;;;;5.65;1.90;;;;;;;;;;5100313;28;20020;-74
2022/01/06 14:04:36;;;;;;;5.95;2.97;;;;;;;;;;5112715;28;20031;-74
2022/01/06 14:07:02;;;;;;;2.88;1.20;;;;;;;;;;5113307;28;20019;-73
2022/01/06 14:09:29;;;;;;;4.80;1.33;;;;;;;;;;5109645;28;20015;-73
2022/01/06 14:11:57;;;;;;;5.20;1.42;;;;;;;;;;5110347;28;20042;-73
2022/01/06 14:14:24;;;;;;;6.65;1.38;;;;;;;;;;5113781;28;20039;-73
2022/01/06 14:16:51;;;;;;;4.88;1.20;;;;;;;;;;5111386;28;20026;-73
2022/01/06 14:19:17;;;;;;;4.82;1.40;;;;;;;;;;5110136;28;20036;-73
2022/01/06 14:21:44;;;;;;;6.63;1.50;;;;;;;;;;5111123;28;20481;-72
2022/01/06 14:24:11;;;;;;;3.25;1.00;;;;;;;;;;5111898;28;20049;-73
2022/01/06 14:26:37;;;;;;;5.72;1.95;;;;;;;;;;5114152;28;20024;-73
2022/01/06 14:29:03;;;;;;;3.13;1.17;;;;;;;;;;5112837;28;20039;-72
2022/01/06 14:31:30;;;;;;;3.35;1.17;;;;;;;;;;5091902;28;20026;-73
2022/01/06 14:33:56;;;;;;;3.42;1.20;;;;;;;;;;5113017;27;20039;-73
2022/01/06 14:36:23;;;;;;;5.20;1.52;;;;;;;;;;5112313;27;20024;-74
2022/01/06 14:38:50;;;;;;;3.30;1.48;;;;;;;;;;5114935;27;20393;-73
2022/01/06 14:41:18;;;;;;;2.95;1.17;;;;;;;;;;5116617;27;20030;-74
2022/01/06 14:43:45;;;;;;;3.95;1.13;;;;;;;;;;5115134;27;20034;-73
2022/01/06 14:46:16;;;;;;;4.43;1.20;;;;;;;;;;5119123;27;20054;-73
2022/01/06 14:48:43;;;;;;;5.45;1.00;;;;;;;;;;5131602;27;20489;-73
2022/01/06 14:51:09;;;;;;;2.92;0.90;;;;;;;;;;5130736;27;20565;-73
2022/01/06 14:53:36;;;;;;;7.15;1.38;;;;;;;;;;5133999;27;20037;-74
2022/01/06 14:56:03;;;;;;;3.63;1.48;;;;;;;;;;5130861;27;20031;-73
2022/01/06 14:58:29;;;;;;;5.10;1.38;;;;;;;;;;5130562;27;20870;-73
2022/01/06 15:00:55;;;;;;;5.53;1.23;;;;;;;;;;5130549;27;20019;-73